createdAt,value
2023-05-10T00:00:11.085Z,11.68
2023-05-10T00:01:11.070Z,10.02
2023-05-10T00:02:11.101Z,10.48
2023-05-10T00:03:11.240Z,9.60
2023-05-10T00:04:11.160Z,9.28
2023-05-10T00:05:11.110Z,9.16
2023-05-10T00:06:11.074Z,10.70
2023-05-10T00:07:11.071Z,10.04
2023-05-10T00:08:11.077Z,10.78
2023-05-10T00:09:11.098Z,12.02
2023-05-10T00:10:11.106Z,11.84
2023-05-10T00:11:11.091Z,11.04
2023-05-10T00:12:11.087Z,10.84
2023-05-10T00:13:11.095Z,11.84
2023-05-10T00:14:11.073Z,11.86
2023-05-10T00:15:11.081Z,11.16
2023-05-10T00:16:11.143Z,12.42
2023-05-10T00:17:11.110Z,11.34
2023-05-10T00:18:11.083Z,11.26
2023-05-10T00:19:11.075Z,12.22
2023-05-10T00:20:11.082Z,12.56
2023-05-10T00:21:11.078Z,11.26
2023-05-10T00:22:11.077Z,11.18
2023-05-10T00:23:11.082Z,11.10
2023-05-10T00:24:11.079Z,10.56
2023-05-10T00:25:11.075Z,12.34
2023-05-10T00:26:11.083Z,11.90
2023-05-10T00:27:11.076Z,10.38
2023-05-10T00:28:11.081Z,10.42
2023-05-10T00:29:11.086Z,10.38
2023-05-10T00:30:11.082Z,10.18
2023-05-10T00:31:11.078Z,10.04
2023-05-10T00:32:11.108Z,10.88
2023-05-10T00:33:11.078Z,11.26
2023-05-10T00:34:11.090Z,10.46
2023-05-10T00:35:11.082Z,9.42
2023-05-10T00:36:12.082Z,10.92
2023-05-10T00:37:11.081Z,10.02
2023-05-10T00:38:11.091Z,8.36
2023-05-10T00:39:11.082Z,10.08
2023-05-10T00:40:11.084Z,10.16
2023-05-10T00:41:11.103Z,10.28
2023-05-10T00:42:11.079Z,8.84
2023-05-10T00:43:11.079Z,9.44
2023-05-10T00:44:11.090Z,10.30
2023-05-10T00:45:11.082Z,9.36
2023-05-10T00:46:11.093Z,8.82
2023-05-10T00:47:11.082Z,8.82
2023-05-10T00:48:11.085Z,9.70
2023-05-10T00:49:11.081Z,9.18
2023-05-10T00:50:11.081Z,8.56
2023-05-10T00:51:11.084Z,10.02
2023-05-10T00:52:11.086Z,9.26
2023-05-10T00:53:11.094Z,9.70
2023-05-10T00:54:11.087Z,10.26
2023-05-10T00:55:11.081Z,10.56
2023-05-10T00:56:11.084Z,10.98
2023-05-10T00:57:11.084Z,11.62
2023-05-10T00:58:11.083Z,10.34
2023-05-10T00:59:11.084Z,10.78
2023-05-10T01:00:11.091Z,10.22
2023-05-10T01:01:11.089Z,12.16
2023-05-10T01:02:11.076Z,10.20
2023-05-10T01:03:11.141Z,11.32
2023-05-10T01:04:11.061Z,11.30
2023-05-10T01:05:11.163Z,10.58
2023-05-10T01:06:11.080Z,11.24
2023-05-10T01:07:11.063Z,10.12
2023-05-10T01:08:11.064Z,10.04
2023-05-10T01:09:11.072Z,10.26
2023-05-10T01:10:11.089Z,11.28
2023-05-10T01:11:11.079Z,8.80
2023-05-10T01:12:11.113Z,7.84
2023-05-10T01:13:11.072Z,9.36
2023-05-10T01:14:11.067Z,9.40
2023-05-10T01:15:11.070Z,8.96
2023-05-10T01:16:11.113Z,8.64
2023-05-10T01:17:11.071Z,9.64
2023-05-10T01:18:11.080Z,9.08
2023-05-10T01:19:19.074Z,9.08
2023-05-10T01:20:11.065Z,8.40
2023-05-10T01:21:19.066Z,9.42
2023-05-10T01:22:19.070Z,8.62
2023-05-10T01:23:19.081Z,9.06
2023-05-10T01:24:19.070Z,9.38
2023-05-10T01:25:23.070Z,10.06
2023-05-10T01:26:19.070Z,8.38
2023-05-10T01:27:19.080Z,9.18
2023-05-10T01:28:19.067Z,9.20
2023-05-10T01:29:21.073Z,9.80
2023-05-10T01:30:19.070Z,10.10
2023-05-10T01:31:21.080Z,9.52
2023-05-10T01:32:20.076Z,8.00
2023-05-10T01:33:17.073Z,9.08
2023-05-10T01:34:16.068Z,7.78
2023-05-10T01:35:19.064Z,10.30
2023-05-10T01:36:19.067Z,9.80
2023-05-10T01:37:17.075Z,9.40
2023-05-10T01:38:19.070Z,9.68
2023-05-10T01:39:20.068Z,8.96
2023-05-10T01:40:19.078Z,9.14
2023-05-10T01:41:19.084Z,10.14
2023-05-10T01:42:14.088Z,8.98
2023-05-10T01:43:18.064Z,9.60
2023-05-10T01:44:21.065Z,8.10
2023-05-10T01:45:19.070Z,8.38
2023-05-10T01:46:21.083Z,8.90
2023-05-10T01:47:19.066Z,8.02
2023-05-10T01:48:12.131Z,8.16
2023-05-10T01:49:12.069Z,7.34
2023-05-10T01:50:16.399Z,9.00
2023-05-10T01:51:11.064Z,8.90
2023-05-10T01:52:12.064Z,6.90
2023-05-10T01:53:11.074Z,7.50
2023-05-10T01:54:11.061Z,8.14
2023-05-10T01:55:16.108Z,8.30
2023-05-10T01:56:11.065Z,8.62
2023-05-10T01:57:11.073Z,7.90
2023-05-10T01:58:13.064Z,8.40
2023-05-10T01:59:16.062Z,7.50
2023-05-10T02:00:11.083Z,7.56
2023-05-10T02:01:11.111Z,7.12
2023-05-10T02:02:11.072Z,8.48
2023-05-10T02:03:11.136Z,8.12
2023-05-10T02:04:11.137Z,7.40
2023-05-10T02:05:12.064Z,9.52
2023-05-10T02:06:11.072Z,8.94
2023-05-10T02:07:11.062Z,8.14
2023-05-10T02:08:11.065Z,7.10
2023-05-10T02:09:11.070Z,7.70
2023-05-10T02:10:11.068Z,9.00
2023-05-10T02:11:13.066Z,7.26
2023-05-10T02:12:11.066Z,7.34
2023-05-10T02:13:11.114Z,7.64
2023-05-10T02:14:12.066Z,7.28
2023-05-10T02:15:12.073Z,8.32
2023-05-10T02:16:11.110Z,6.74
2023-05-10T02:17:11.064Z,6.22
2023-05-10T02:18:11.069Z,6.90
2023-05-10T02:19:11.089Z,6.58
2023-05-10T02:20:11.070Z,7.08
2023-05-10T02:21:11.068Z,6.04
2023-05-10T02:22:11.067Z,6.00
2023-05-10T02:23:11.073Z,6.80
2023-05-10T02:24:11.074Z,7.36
2023-05-10T02:25:12.069Z,6.56
2023-05-10T02:26:11.071Z,7.26
2023-05-10T02:27:11.072Z,7.84
2023-05-10T02:28:11.073Z,7.12
2023-05-10T02:29:11.077Z,7.30
2023-05-10T02:30:11.069Z,7.38
2023-05-10T02:31:11.071Z,9.28
2023-05-10T02:32:11.127Z,6.86
2023-05-10T02:33:11.071Z,7.92
2023-05-10T02:34:11.074Z,7.70
2023-05-10T02:35:11.066Z,6.94
2023-05-10T02:36:11.070Z,7.12
2023-05-10T02:37:11.095Z,6.18
2023-05-10T02:38:11.071Z,6.82
2023-05-10T02:39:14.072Z,7.32
2023-05-10T02:40:11.075Z,6.46
2023-05-10T02:41:11.078Z,6.50
2023-05-10T02:42:14.075Z,6.96
2023-05-10T02:43:13.074Z,5.48
2023-05-10T02:44:11.071Z,7.64
2023-05-10T02:45:12.085Z,7.58
2023-05-10T02:46:11.116Z,5.76
2023-05-10T02:47:11.081Z,6.58
2023-05-10T02:48:11.087Z,7.20
2023-05-10T02:49:11.077Z,5.04
2023-05-10T02:50:11.073Z,5.82
2023-05-10T02:51:12.083Z,5.52
2023-05-10T02:52:11.079Z,6.00
2023-05-10T02:53:15.074Z,7.62
2023-05-10T02:54:13.089Z,5.32
2023-05-10T02:55:12.080Z,6.60
2023-05-10T02:56:21.081Z,6.64
2023-05-10T02:57:14.074Z,5.72
2023-05-10T02:58:11.092Z,6.46
2023-05-10T02:59:11.075Z,6.38
2023-05-10T03:00:11.081Z,6.40
2023-05-10T03:01:11.095Z,6.58
2023-05-10T03:02:11.072Z,6.02
2023-05-10T03:03:11.081Z,7.20
2023-05-10T03:04:11.122Z,5.78
2023-05-10T03:05:11.075Z,6.06
2023-05-10T03:06:11.076Z,5.84
2023-05-10T03:07:11.085Z,6.42
2023-05-10T03:08:11.080Z,6.20
2023-05-10T03:09:11.073Z,5.86
2023-05-10T03:10:11.080Z,6.68
2023-05-10T03:11:21.079Z,6.16
2023-05-10T03:12:21.078Z,8.18
2023-05-10T03:13:21.157Z,7.74
2023-05-10T03:14:19.095Z,7.06
2023-05-10T03:15:21.090Z,6.58
2023-05-10T03:16:21.103Z,6.62
2023-05-10T03:17:18.078Z,5.94
2023-05-10T03:18:17.088Z,5.56
2023-05-10T03:19:19.084Z,7.46
2023-05-10T03:20:12.086Z,5.48
2023-05-10T03:21:12.073Z,5.72
2023-05-10T03:22:13.082Z,5.74
2023-05-10T03:23:19.111Z,5.34
2023-05-10T03:24:13.091Z,5.46
2023-05-10T03:25:11.076Z,5.20
2023-05-10T03:26:11.085Z,4.78
2023-05-10T03:27:11.081Z,5.46
2023-05-10T03:28:11.077Z,7.26
2023-05-10T03:29:11.079Z,4.76
2023-05-10T03:30:13.083Z,5.14
2023-05-10T03:31:11.100Z,4.70
2023-05-10T03:32:11.083Z,4.38
2023-05-10T03:33:11.079Z,4.70
2023-05-10T03:34:11.075Z,5.32
2023-05-10T03:35:11.080Z,4.38
2023-05-10T03:36:11.083Z,4.38
2023-05-10T03:37:11.084Z,4.90
2023-05-10T03:38:11.082Z,4.20
2023-05-10T03:39:11.089Z,4.36
2023-05-10T03:40:11.090Z,4.14
2023-05-10T03:41:11.090Z,3.50
2023-05-10T03:42:11.089Z,4.10
2023-05-10T03:43:11.085Z,3.68
2023-05-10T03:44:11.084Z,4.20
2023-05-10T03:45:11.135Z,4.22
2023-05-10T03:46:11.100Z,3.74
2023-05-10T03:47:11.081Z,3.56
2023-05-10T03:48:11.112Z,5.06
2023-05-10T03:49:11.082Z,4.22
2023-05-10T03:50:11.087Z,4.64
2023-05-10T03:51:11.092Z,4.60
2023-05-10T03:52:11.096Z,3.44
2023-05-10T03:53:11.089Z,3.88
2023-05-10T03:54:11.093Z,3.38
2023-05-10T03:55:11.083Z,2.86
2023-05-10T03:56:11.085Z,2.82
2023-05-10T03:57:11.100Z,3.16
2023-05-10T03:58:13.087Z,3.16
2023-05-10T03:59:12.090Z,4.10
2023-05-10T04:00:11.083Z,4.08
2023-05-10T04:01:11.075Z,2.96
2023-05-10T04:02:11.080Z,3.46
2023-05-10T04:03:11.205Z,4.02
2023-05-10T04:04:11.114Z,3.70
2023-05-10T04:05:11.067Z,2.90
2023-05-10T04:06:11.108Z,3.58
2023-05-10T04:07:11.067Z,3.72
2023-05-10T04:08:11.071Z,3.22
2023-05-10T04:09:11.087Z,3.88
2023-05-10T04:10:11.069Z,3.08
2023-05-10T04:11:14.063Z,3.68
2023-05-10T04:12:11.229Z,4.12
2023-05-10T04:13:11.166Z,4.04
2023-05-10T04:14:11.064Z,5.18
2023-05-10T04:15:11.064Z,3.90
2023-05-10T04:16:11.076Z,2.58
2023-05-10T04:17:11.092Z,3.54
2023-05-10T04:18:11.153Z,3.80
2023-05-10T04:19:11.078Z,3.36
2023-05-10T04:20:11.069Z,3.96
2023-05-10T04:21:15.070Z,3.68
2023-05-10T04:22:11.068Z,3.52
2023-05-10T04:23:11.067Z,4.36
2023-05-10T04:24:11.170Z,4.14
2023-05-10T04:25:11.066Z,3.38
2023-05-10T04:26:11.067Z,3.20
2023-05-10T04:27:11.065Z,4.04
2023-05-10T04:28:11.067Z,4.36
2023-05-10T04:29:11.076Z,3.24
2023-05-10T04:30:11.071Z,3.80
2023-05-10T04:31:11.095Z,3.56
2023-05-10T04:32:11.078Z,3.72
2023-05-10T04:33:11.074Z,3.56
2023-05-10T04:34:11.069Z,3.42
2023-05-10T04:35:11.116Z,4.48
2023-05-10T04:36:11.071Z,3.64
2023-05-10T04:37:11.066Z,3.40
2023-05-10T04:38:11.072Z,3.16
2023-05-10T04:39:11.066Z,3.54
2023-05-10T04:40:11.068Z,3.60
2023-05-10T04:41:11.073Z,3.68
2023-05-10T04:42:11.067Z,4.74
2023-05-10T04:43:11.066Z,3.62
2023-05-10T04:44:11.067Z,3.92
2023-05-10T04:45:11.068Z,3.26
2023-05-10T04:46:11.117Z,2.52
2023-05-10T04:47:12.597Z,2.74
2023-05-10T04:48:11.069Z,2.96
2023-05-10T04:49:11.067Z,4.16
2023-05-10T04:50:11.077Z,3.94
2023-05-10T04:51:11.073Z,3.46
2023-05-10T04:52:11.061Z,3.96
2023-05-10T04:53:11.093Z,3.50
2023-05-10T04:54:11.080Z,3.16
2023-05-10T04:55:12.085Z,3.50
2023-05-10T04:56:11.064Z,2.82
2023-05-10T04:57:11.075Z,3.34
2023-05-10T04:58:11.078Z,4.18
2023-05-10T04:59:11.073Z,4.14
2023-05-10T05:00:11.080Z,3.54
2023-05-10T05:01:11.130Z,4.06
2023-05-10T05:02:11.067Z,2.48
2023-05-10T05:03:11.228Z,2.80
2023-05-10T05:04:11.065Z,2.48
2023-05-10T05:05:11.071Z,3.44
2023-05-10T05:06:11.068Z,3.92
2023-05-10T05:07:11.076Z,3.24
2023-05-10T05:08:11.082Z,3.72
2023-05-10T05:09:11.100Z,3.12
2023-05-10T05:10:11.075Z,3.50
2023-05-10T05:11:11.077Z,3.82
2023-05-10T05:12:11.072Z,3.36
2023-05-10T05:13:11.112Z,3.22
2023-05-10T05:14:11.066Z,3.96
2023-05-10T05:15:11.088Z,3.14
2023-05-10T05:16:11.137Z,3.80
2023-05-10T05:17:11.078Z,3.82
2023-05-10T05:18:11.196Z,3.96
2023-05-10T05:19:11.077Z,3.98
2023-05-10T05:20:11.071Z,3.60
2023-05-10T05:21:15.073Z,3.62
2023-05-10T05:22:11.082Z,4.38
2023-05-10T05:23:11.073Z,4.20
2023-05-10T05:24:11.086Z,4.04
2023-05-10T05:25:11.087Z,4.08
2023-05-10T05:26:11.078Z,3.82
2023-05-10T05:27:11.069Z,4.10
2023-05-10T05:28:11.081Z,3.40
2023-05-10T05:29:11.089Z,4.66
2023-05-10T05:30:11.072Z,4.88
2023-05-10T05:31:11.177Z,4.60
2023-05-10T05:32:11.169Z,3.62
2023-05-10T05:33:11.130Z,3.88
2023-05-10T05:34:11.084Z,3.78
2023-05-10T05:35:11.079Z,3.74
2023-05-10T05:36:11.075Z,3.86
2023-05-10T05:37:13.072Z,3.86
2023-05-10T05:38:11.075Z,3.52
2023-05-10T05:39:11.070Z,2.96
2023-05-10T05:40:13.083Z,4.22
2023-05-10T05:41:11.079Z,3.52
2023-05-10T05:42:11.068Z,3.56
2023-05-10T05:43:11.081Z,3.54
2023-05-10T05:44:11.101Z,3.88
2023-05-10T05:45:11.077Z,3.96
2023-05-10T05:46:11.128Z,3.26
2023-05-10T05:47:11.076Z,3.80
2023-05-10T05:48:11.129Z,3.58
2023-05-10T05:49:11.078Z,4.22
2023-05-10T05:50:11.095Z,3.44
2023-05-10T05:51:11.076Z,2.94
2023-05-10T05:52:11.067Z,3.64
2023-05-10T05:53:11.153Z,3.42
2023-05-10T05:54:11.075Z,4.00
2023-05-10T05:55:11.069Z,3.58
2023-05-10T05:56:11.077Z,3.06
2023-05-10T05:57:11.075Z,2.88
2023-05-10T05:58:11.078Z,3.08
2023-05-10T05:59:11.080Z,3.40
2023-05-10T06:00:11.077Z,4.36
2023-05-10T06:01:11.091Z,2.96
2023-05-10T06:02:11.113Z,2.72
2023-05-10T06:03:11.159Z,3.36
2023-05-10T06:04:11.121Z,4.24
2023-05-10T06:05:11.081Z,3.26
2023-05-10T06:06:11.077Z,3.42
2023-05-10T06:07:11.075Z,3.00
2023-05-10T06:08:11.073Z,3.50
2023-05-10T06:09:11.079Z,3.70
2023-05-10T06:10:11.082Z,3.10
2023-05-10T06:11:11.077Z,3.30
2023-05-10T06:12:11.078Z,4.60
2023-05-10T06:13:11.149Z,3.14
2023-05-10T06:14:11.078Z,3.66
2023-05-10T06:15:11.093Z,4.42
2023-05-10T06:16:11.121Z,3.08
2023-05-10T06:17:11.082Z,4.56
2023-05-10T06:18:11.155Z,4.20
2023-05-10T06:19:11.080Z,4.48
2023-05-10T06:20:11.085Z,3.74
2023-05-10T06:21:11.096Z,3.72
2023-05-10T06:22:11.080Z,3.50
2023-05-10T06:23:11.078Z,2.64
2023-05-10T06:24:11.080Z,2.80
2023-05-10T06:25:11.126Z,3.70
2023-05-10T06:26:11.076Z,2.52
2023-05-10T06:27:11.090Z,2.90
2023-05-10T06:28:11.083Z,2.62
2023-05-10T06:29:11.087Z,2.98
2023-05-10T06:30:13.468Z,2.76
2023-05-10T06:31:11.088Z,3.28
2023-05-10T06:32:11.079Z,3.38
2023-05-10T06:33:11.111Z,3.54
2023-05-10T06:34:11.079Z,4.22
2023-05-10T06:35:11.091Z,2.26
2023-05-10T06:36:11.095Z,3.58
2023-05-10T06:37:11.081Z,2.38
2023-05-10T06:38:11.082Z,3.20
2023-05-10T06:39:11.083Z,2.90
2023-05-10T06:40:11.084Z,3.54
2023-05-10T06:41:11.081Z,2.92
2023-05-10T06:42:11.086Z,3.20
2023-05-10T06:43:11.081Z,2.64
2023-05-10T06:44:11.085Z,2.86
2023-05-10T06:45:11.088Z,3.26
2023-05-10T06:46:11.131Z,3.00
2023-05-10T06:47:11.080Z,2.80
2023-05-10T06:48:11.147Z,3.14
2023-05-10T06:49:11.091Z,2.74
2023-05-10T06:50:11.092Z,2.80
2023-05-10T06:51:11.085Z,2.98
2023-05-10T06:52:11.083Z,2.96
2023-05-10T06:53:11.096Z,2.88
2023-05-10T06:54:11.091Z,2.48
2023-05-10T06:55:11.087Z,3.28
2023-05-10T06:56:11.089Z,2.90
2023-05-10T06:57:23.375Z,2.52
2023-05-10T06:58:13.105Z,2.50
2023-05-10T06:59:11.102Z,3.20
2023-05-10T07:00:11.105Z,2.84
2023-05-10T07:01:11.276Z,3.22
2023-05-10T07:02:11.124Z,2.04
2023-05-10T07:03:12.174Z,2.56
2023-05-10T07:04:11.075Z,3.26
2023-05-10T07:05:11.059Z,3.20
2023-05-10T07:06:21.711Z,2.14
2023-05-10T07:07:13.039Z,2.74
2023-05-10T07:08:11.065Z,2.78
2023-05-10T07:09:11.062Z,2.82
2023-05-10T07:10:11.071Z,3.08
2023-05-10T07:11:11.065Z,3.06
2023-05-10T07:12:12.743Z,2.68
2023-05-10T07:13:11.128Z,2.14
2023-05-10T07:14:11.069Z,2.12
2023-05-10T07:15:11.065Z,3.58
2023-05-10T07:16:11.133Z,2.18
2023-05-10T07:17:11.147Z,2.12
2023-05-10T07:18:11.134Z,2.18
2023-05-10T07:19:11.064Z,2.22
2023-05-10T07:20:11.073Z,1.94
2023-05-10T07:21:11.100Z,2.38
2023-05-10T07:22:11.066Z,2.10
2023-05-10T07:23:11.067Z,3.38
2023-05-10T07:24:11.063Z,3.18
2023-05-10T07:25:11.068Z,3.18
2023-05-10T07:26:11.075Z,1.96
2023-05-10T07:27:11.063Z,2.36
2023-05-10T07:28:11.072Z,3.42
2023-05-10T07:29:11.077Z,3.34
2023-05-10T07:30:11.072Z,3.26
2023-05-10T07:31:11.201Z,2.20
2023-05-10T07:32:11.122Z,2.60
2023-05-10T07:33:11.137Z,3.92
2023-05-10T07:34:11.077Z,2.48
2023-05-10T07:35:11.090Z,2.52
2023-05-10T07:36:11.069Z,3.36
2023-05-10T07:37:11.084Z,2.42
2023-05-10T07:38:11.074Z,2.82
2023-05-10T07:39:12.731Z,3.24
2023-05-10T07:40:13.034Z,4.32
2023-05-10T07:41:11.069Z,2.44
2023-05-10T07:42:11.078Z,2.12
2023-05-10T07:43:11.065Z,3.30
2023-05-10T07:44:11.065Z,2.94
2023-05-10T07:45:11.071Z,5.14
2023-05-10T07:46:11.197Z,3.24
2023-05-10T07:47:11.084Z,2.84
2023-05-10T07:48:11.068Z,3.70
2023-05-10T07:49:11.067Z,2.76
2023-05-10T07:50:11.101Z,2.40
2023-05-10T07:51:12.080Z,2.54
2023-05-10T07:52:11.093Z,2.78
2023-05-10T07:53:11.076Z,2.58
2023-05-10T07:54:11.078Z,2.70
2023-05-10T07:55:11.071Z,2.66
2023-05-10T07:56:19.071Z,2.68
2023-05-10T07:57:11.066Z,3.52
2023-05-10T07:58:11.065Z,3.00
2023-05-10T07:59:12.819Z,2.84
2023-05-10T08:00:13.095Z,2.64
2023-05-10T08:01:11.081Z,3.42
2023-05-10T08:02:11.131Z,3.04
2023-05-10T08:03:11.173Z,2.82
2023-05-10T08:04:11.131Z,2.64
2023-05-10T08:05:11.073Z,2.94
2023-05-10T08:06:11.085Z,2.40
2023-05-10T08:07:11.125Z,2.70
2023-05-10T08:08:11.076Z,3.46
2023-05-10T08:09:11.100Z,2.32
2023-05-10T08:10:11.065Z,2.58
2023-05-10T08:11:11.067Z,3.14
2023-05-10T08:12:11.076Z,2.56
2023-05-10T08:13:11.071Z,3.08
2023-05-10T08:14:11.071Z,2.60
2023-05-10T08:15:11.080Z,3.62
2023-05-10T08:16:11.093Z,2.52
2023-05-10T08:17:11.069Z,2.60
2023-05-10T08:18:11.108Z,1.86
2023-05-10T08:19:11.100Z,2.26
2023-05-10T08:20:11.070Z,2.54
2023-05-10T08:21:11.153Z,1.86
2023-05-10T08:22:11.073Z,2.42
2023-05-10T08:23:11.067Z,2.36
2023-05-10T08:24:11.071Z,2.14
2023-05-10T08:25:11.065Z,1.76
2023-05-10T08:26:11.069Z,1.86
2023-05-10T08:27:11.076Z,2.62
2023-05-10T08:28:11.962Z,2.24
2023-05-10T08:29:11.069Z,2.34
2023-05-10T08:30:11.077Z,2.18
2023-05-10T08:31:11.079Z,2.14
2023-05-10T08:32:11.077Z,2.84
2023-05-10T08:33:11.181Z,1.74
2023-05-10T08:34:11.070Z,2.44
2023-05-10T08:35:11.076Z,2.12
2023-05-10T08:36:11.074Z,2.12
2023-05-10T08:37:11.068Z,2.60
2023-05-10T08:38:11.073Z,2.70
2023-05-10T08:39:22.806Z,2.92
2023-05-10T08:40:14.071Z,3.06
2023-05-10T08:41:11.083Z,2.66
2023-05-10T08:42:11.080Z,1.92
2023-05-10T08:43:11.091Z,2.00
2023-05-10T08:44:11.082Z,3.30
2023-05-10T08:45:11.081Z,2.50
2023-05-10T08:46:11.117Z,3.44
2023-05-10T08:47:11.204Z,2.72
2023-05-10T08:48:11.179Z,3.38
2023-05-10T08:49:12.074Z,2.96
2023-05-10T08:50:11.079Z,1.84
2023-05-10T08:51:11.091Z,2.06
2023-05-10T08:52:11.085Z,2.16
2023-05-10T08:53:14.076Z,2.64
2023-05-10T08:54:11.079Z,2.64
2023-05-10T08:55:11.084Z,2.20
2023-05-10T08:56:11.124Z,2.32
2023-05-10T08:57:11.084Z,2.38
2023-05-10T08:58:11.100Z,2.90
2023-05-10T08:59:11.074Z,2.00
2023-05-10T09:00:11.078Z,1.78
2023-05-10T09:01:11.107Z,6.18
2023-05-10T09:02:12.082Z,1.98
2023-05-10T09:03:11.088Z,1.80
2023-05-10T09:04:11.141Z,2.04
2023-05-10T09:05:11.134Z,1.56
2023-05-10T09:06:12.082Z,1.64
2023-05-10T09:07:11.076Z,1.58
2023-05-10T09:08:11.084Z,1.76
2023-05-10T09:09:11.096Z,2.72
2023-05-10T09:10:11.105Z,1.44
2023-05-10T09:11:11.080Z,2.04
2023-05-10T09:12:11.093Z,2.06
2023-05-10T09:13:11.089Z,1.74
2023-05-10T09:14:11.116Z,2.12
2023-05-10T09:15:11.091Z,1.66
2023-05-10T09:16:21.370Z,1.88
2023-05-10T09:17:13.133Z,2.10
2023-05-10T09:18:11.128Z,2.96
2023-05-10T09:19:11.202Z,2.02
2023-05-10T09:20:11.080Z,1.88
2023-05-10T09:21:11.091Z,2.44
2023-05-10T09:22:11.082Z,2.92
2023-05-10T09:23:11.096Z,2.08
2023-05-10T09:24:11.103Z,1.62
2023-05-10T09:25:13.091Z,1.60
2023-05-10T09:26:11.108Z,2.24
2023-05-10T09:27:11.092Z,1.34
2023-05-10T09:28:11.085Z,1.72
2023-05-10T09:29:11.082Z,3.42
2023-05-10T09:30:11.089Z,1.70
2023-05-10T09:31:11.098Z,1.88
2023-05-10T09:32:11.098Z,2.00
2023-05-10T09:33:11.089Z,1.78
2023-05-10T09:34:11.081Z,2.48
2023-05-10T09:35:13.093Z,1.88
2023-05-10T09:36:11.089Z,2.10
2023-05-10T09:37:11.080Z,2.12
2023-05-10T09:38:11.258Z,1.40
2023-05-10T09:39:11.086Z,1.78
2023-05-10T09:40:19.088Z,2.06
2023-05-10T09:41:17.086Z,0.94
2023-05-10T09:42:11.089Z,2.22
2023-05-10T09:43:11.097Z,1.74
2023-05-10T09:44:11.088Z,1.58
2023-05-10T09:45:11.085Z,1.96
2023-05-10T09:46:11.117Z,1.82
2023-05-10T09:47:11.081Z,1.52
2023-05-10T09:48:11.134Z,2.10
2023-05-10T09:49:14.095Z,1.68
2023-05-10T09:50:11.086Z,1.78
2023-05-10T09:51:11.091Z,2.36
2023-05-10T09:52:11.094Z,1.38
2023-05-10T09:53:11.082Z,2.04
2023-05-10T09:54:13.102Z,1.50
2023-05-10T09:55:11.090Z,0.76
2023-05-10T09:56:11.088Z,1.12
2023-05-10T09:57:19.102Z,1.68
2023-05-10T09:58:14.102Z,2.86
2023-05-10T09:59:11.086Z,2.42
2023-05-10T10:00:11.102Z,1.22
2023-05-10T10:01:13.139Z,1.28
2023-05-10T10:02:11.070Z,1.52
2023-05-10T10:03:15.112Z,1.42
2023-05-10T10:04:11.079Z,2.14
2023-05-10T10:05:11.086Z,1.06
2023-05-10T10:06:18.887Z,1.16
2023-05-10T10:07:13.082Z,1.74
2023-05-10T10:08:11.078Z,2.06
2023-05-10T10:09:11.063Z,1.44
2023-05-10T10:10:11.072Z,1.20
2023-05-10T10:11:11.068Z,1.16
2023-05-10T10:12:11.066Z,0.94
2023-05-10T10:13:11.067Z,1.14
2023-05-10T10:14:12.072Z,1.28
2023-05-10T10:15:11.085Z,1.76
2023-05-10T10:16:11.123Z,0.82
2023-05-10T10:17:11.079Z,1.42
2023-05-10T10:18:13.068Z,1.82
2023-05-10T10:19:11.069Z,1.02
2023-05-10T10:20:12.266Z,1.28
2023-05-10T10:21:11.068Z,1.26
2023-05-10T10:22:11.072Z,1.68
2023-05-10T10:23:11.071Z,1.42
2023-05-10T10:24:11.070Z,2.12
2023-05-10T10:25:11.067Z,1.18
2023-05-10T10:26:11.075Z,2.52
2023-05-10T10:27:19.069Z,2.40
2023-05-10T10:28:19.071Z,2.16
2023-05-10T10:29:21.079Z,2.36
2023-05-10T10:30:20.072Z,2.32
2023-05-10T10:31:21.132Z,1.78
2023-05-10T10:32:19.072Z,1.60
2023-05-10T10:33:27.822Z,1.72
2023-05-10T10:34:14.060Z,1.44
2023-05-10T10:35:11.085Z,1.98
2023-05-10T10:36:11.067Z,2.80
2023-05-10T10:37:11.075Z,4.38
2023-05-10T10:38:11.073Z,1.30
2023-05-10T10:39:12.074Z,1.80
2023-05-10T10:40:19.076Z,1.90
2023-05-10T10:41:17.079Z,2.52
2023-05-10T10:42:11.077Z,1.80
2023-05-10T10:43:19.078Z,1.44
2023-05-10T10:44:19.086Z,2.60
2023-05-10T10:45:15.367Z,1.86
2023-05-10T10:46:17.150Z,1.54
2023-05-10T10:47:24.211Z,3.60
2023-05-10T10:48:19.072Z,1.94
2023-05-10T10:49:13.077Z,1.78
2023-05-10T10:50:11.076Z,1.34
2023-05-10T10:51:12.789Z,1.66
2023-05-10T10:52:21.099Z,1.32
2023-05-10T10:53:13.164Z,1.58
2023-05-10T10:54:13.100Z,1.74
2023-05-10T10:55:19.400Z,1.78
2023-05-10T10:56:13.079Z,2.70
2023-05-10T10:57:13.074Z,1.92
2023-05-10T10:58:11.124Z,1.60
2023-05-10T10:59:11.075Z,1.58
2023-05-10T11:00:19.077Z,1.46
2023-05-10T11:01:17.160Z,1.80
2023-05-10T11:02:11.076Z,1.78
2023-05-10T11:03:13.127Z,1.56
2023-05-10T11:04:18.167Z,1.82
2023-05-10T11:05:19.096Z,2.06
2023-05-10T11:06:11.079Z,2.18
2023-05-10T11:07:17.073Z,1.68
2023-05-10T11:08:21.080Z,1.90
2023-05-10T11:09:11.083Z,3.44
2023-05-10T11:10:11.094Z,2.60
2023-05-10T11:11:14.076Z,1.58
2023-05-10T11:12:12.073Z,1.92
2023-05-10T11:13:11.077Z,1.28
2023-05-10T11:14:11.083Z,2.18
2023-05-10T11:15:11.076Z,1.86
2023-05-10T11:16:20.238Z,1.60
2023-05-10T11:17:19.092Z,1.28
2023-05-10T11:18:17.095Z,1.04
2023-05-10T11:19:11.110Z,1.50
2023-05-10T11:20:11.084Z,1.42
2023-05-10T11:21:11.084Z,1.88
2023-05-10T11:22:15.071Z,1.98
2023-05-10T11:23:15.077Z,1.54
2023-05-10T11:24:15.085Z,1.60
2023-05-10T11:25:11.077Z,0.78
2023-05-10T11:26:14.078Z,0.58
2023-05-10T11:27:11.084Z,1.16
2023-05-10T11:28:11.078Z,0.94
2023-05-10T11:29:11.073Z,1.84
2023-05-10T11:30:12.078Z,1.04
2023-05-10T11:31:11.086Z,1.30
2023-05-10T11:32:12.075Z,1.18
2023-05-10T11:33:11.082Z,1.52
2023-05-10T11:34:11.079Z,1.24
2023-05-10T11:35:13.076Z,1.78
2023-05-10T11:36:15.081Z,0.86
2023-05-10T11:37:11.086Z,0.88
2023-05-10T11:38:11.080Z,1.72
2023-05-10T11:39:11.087Z,0.92
2023-05-10T11:40:11.139Z,0.38
2023-05-10T11:41:13.078Z,0.86
2023-05-10T11:42:11.086Z,0.74
2023-05-10T11:43:11.092Z,1.38
2023-05-10T11:44:11.084Z,0.54
2023-05-10T11:45:11.081Z,0.84
2023-05-10T11:46:13.153Z,0.74
2023-05-10T11:47:11.088Z,0.84
2023-05-10T11:48:11.151Z,0.94
2023-05-10T11:49:11.114Z,0.66
2023-05-10T11:50:11.087Z,1.30
2023-05-10T11:51:13.081Z,1.52
2023-05-10T11:52:11.082Z,1.12
2023-05-10T11:53:11.095Z,0.98
2023-05-10T11:54:11.086Z,1.50
2023-05-10T11:55:11.097Z,1.20
2023-05-10T11:56:11.086Z,0.74
2023-05-10T11:57:11.080Z,1.22
2023-05-10T11:58:11.089Z,0.70
2023-05-10T11:59:11.084Z,0.76
2023-05-10T12:00:11.088Z,1.08
2023-05-10T12:01:11.084Z,0.76
2023-05-10T12:02:11.086Z,1.22
2023-05-10T12:03:11.264Z,1.12
2023-05-10T12:04:11.269Z,0.66
2023-05-10T12:05:11.151Z,1.44
2023-05-10T12:06:11.080Z,1.18
2023-05-10T12:07:11.096Z,0.78
2023-05-10T12:08:15.084Z,0.84
2023-05-10T12:09:11.107Z,1.02
2023-05-10T12:10:13.125Z,1.68
2023-05-10T12:11:11.097Z,2.60
2023-05-10T12:12:11.104Z,1.90
2023-05-10T12:13:15.111Z,1.00
2023-05-10T12:14:11.090Z,1.18
2023-05-10T12:15:17.087Z,1.16
2023-05-10T12:16:21.164Z,0.64
2023-05-10T12:17:14.092Z,0.72
2023-05-10T12:18:15.160Z,0.80
2023-05-10T12:19:11.257Z,1.06
2023-05-10T12:20:15.353Z,1.24
2023-05-10T12:21:11.090Z,1.64
2023-05-10T12:22:11.095Z,1.22
2023-05-10T12:23:11.101Z,1.00
2023-05-10T12:24:11.094Z,1.06
2023-05-10T12:25:11.097Z,0.62
2023-05-10T12:26:12.084Z,0.86
2023-05-10T12:27:12.090Z,1.28
2023-05-10T12:28:11.089Z,0.84
2023-05-10T12:29:15.087Z,0.66
2023-05-10T12:30:11.092Z,0.84
2023-05-10T12:31:11.092Z,0.68
2023-05-10T12:32:11.217Z,0.60
2023-05-10T12:33:13.228Z,0.66
2023-05-10T12:34:11.092Z,0.52
2023-05-10T12:35:11.094Z,1.34
2023-05-10T12:36:11.099Z,0.42
2023-05-10T12:37:11.094Z,0.98
2023-05-10T12:38:19.094Z,1.86
2023-05-10T12:39:11.093Z,0.56
2023-05-10T12:40:11.101Z,0.56
2023-05-10T12:41:11.122Z,0.50
2023-05-10T12:42:11.103Z,0.64
2023-05-10T12:43:11.100Z,1.00
2023-05-10T12:44:11.094Z,0.62
2023-05-10T12:45:11.096Z,0.94
2023-05-10T12:46:13.151Z,1.10
2023-05-10T12:47:11.149Z,1.22
2023-05-10T12:48:11.153Z,0.78
2023-05-10T12:49:11.096Z,1.20
2023-05-10T12:50:11.123Z,1.62
2023-05-10T12:51:11.100Z,0.62
2023-05-10T12:52:11.115Z,0.88
2023-05-10T12:53:11.093Z,0.50
2023-05-10T12:54:11.103Z,0.78
2023-05-10T12:55:11.101Z,0.60
2023-05-10T12:56:11.134Z,1.24
2023-05-10T12:57:11.102Z,0.76
2023-05-10T12:58:12.371Z,0.78
2023-05-10T12:59:11.095Z,0.56
2023-05-10T13:00:11.118Z,0.68
2023-05-10T13:01:11.111Z,1.48
2023-05-10T13:02:11.076Z,0.70
2023-05-10T13:03:11.141Z,0.88
2023-05-10T13:04:11.112Z,0.98
2023-05-10T13:05:11.108Z,0.64
2023-05-10T13:06:11.070Z,0.92
2023-05-10T13:07:11.066Z,1.04
2023-05-10T13:08:11.068Z,0.86
2023-05-10T13:09:11.073Z,1.14
2023-05-10T13:10:11.147Z,0.82
2023-05-10T13:11:11.065Z,0.98
2023-05-10T13:12:11.063Z,0.92
2023-05-10T13:13:11.062Z,0.58
2023-05-10T13:14:11.068Z,0.78
2023-05-10T13:15:11.078Z,0.74
2023-05-10T13:16:11.067Z,0.50